sensor_id;sensor_type;location;lat;lon;timestamp;temperature;humidity
69335;SHT31;56477;52.742;15.242;2022-07-10T00:00:10;12.68;82.46
69335;SHT31;56477;52.742;15.242;2022-07-10T00:02:57;12.69;82.22
69335;SHT31;56477;52.742;15.242;2022-07-10T00:05:24;12.65;82.13
69335;SHT31;56477;52.742;15.242;2022-07-10T00:07:51;12.68;81.67
69335;SHT31;56477;52.742;15.242;2022-07-10T00:10:19;12.69;82.32
69335;SHT31;56477;52.742;15.242;2022-07-10T00:12:45;12.74;82.05
69335;SHT31;56477;52.742;15.242;2022-07-10T00:15:12;12.75;82.18
69335;SHT31;56477;52.742;15.242;2022-07-10T00:17:39;12.77;81.79
69335;SHT31;56477;52.742;15.242;2022-07-10T00:20:06;12.80;82.09
69335;SHT31;56477;52.742;15.242;2022-07-10T00:22:33;12.85;81.17
69335;SHT31;56477;52.742;15.242;2022-07-10T00:25:08;12.85;81.65
69335;SHT31;56477;52.742;15.242;2022-07-10T00:27:35;12.87;81.71
69335;SHT31;56477;52.742;15.242;2022-07-10T00:30:01;12.88;81.09
69335;SHT31;56477;52.742;15.242;2022-07-10T00:32:27;12.93;81.41
69335;SHT31;56477;52.742;15.242;2022-07-10T00:34:53;12.95;81.54
69335;SHT31;56477;52.742;15.242;2022-07-10T00:37:19;12.98;81.06
69335;SHT31;56477;52.742;15.242;2022-07-10T00:39:47;12.99;81.10
69335;SHT31;56477;52.742;15.242;2022-07-10T00:42:14;13.03;80.58
69335;SHT31;56477;52.742;15.242;2022-07-10T00:44:42;13.02;81.17
69335;SHT31;56477;52.742;15.242;2022-07-10T00:47:09;13.03;81.07
69335;SHT31;56477;52.742;15.242;2022-07-10T00:49:36;13.09;80.25
69335;SHT31;56477;52.742;15.242;2022-07-10T00:52:07;13.09;80.11
69335;SHT31;56477;52.742;15.242;2022-07-10T00:54:34;13.08;80.99
69335;SHT31;56477;52.742;15.242;2022-07-10T00:57:03;13.10;80.34
69335;SHT31;56477;52.742;15.242;2022-07-10T00:59:29;13.09;80.52
69335;SHT31;56477;52.742;15.242;2022-07-10T01:01:56;13.10;79.86
69335;SHT31;56477;52.742;15.242;2022-07-10T01:04:22;13.18;79.64
69335;SHT31;56477;52.742;15.242;2022-07-10T01:06:48;13.12;79.76
69335;SHT31;56477;52.742;15.242;2022-07-10T01:09:14;13.16;79.58
69335;SHT31;56477;52.742;15.242;2022-07-10T01:11:40;13.15;80.21
69335;SHT31;56477;52.742;15.242;2022-07-10T01:14:06;13.16;80.19
69335;SHT31;56477;52.742;15.242;2022-07-10T01:16:32;13.12;80.32
69335;SHT31;56477;52.742;15.242;2022-07-10T01:18:58;13.16;80.24
69335;SHT31;56477;52.742;15.242;2022-07-10T01:21:30;13.08;80.23
69335;SHT31;56477;52.742;15.242;2022-07-10T01:23:57;13.15;79.88
69335;SHT31;56477;52.742;15.242;2022-07-10T01:26:24;13.13;79.92
69335;SHT31;56477;52.742;15.242;2022-07-10T01:28:52;13.16;79.75
69335;SHT31;56477;52.742;15.242;2022-07-10T01:31:19;13.18;79.94
69335;SHT31;56477;52.742;15.242;2022-07-10T01:33:46;13.15;79.96
69335;SHT31;56477;52.742;15.242;2022-07-10T01:36:12;13.13;79.49
69335;SHT31;56477;52.742;15.242;2022-07-10T01:38:41;13.19;79.34
69335;SHT31;56477;52.742;15.242;2022-07-10T01:41:08;13.10;80.65
69335;SHT31;56477;52.742;15.242;2022-07-10T01:43:38;13.12;79.70
69335;SHT31;56477;52.742;15.242;2022-07-10T01:46:08;13.12;80.58
69335;SHT31;56477;52.742;15.242;2022-07-10T01:48:37;13.09;80.65
69335;SHT31;56477;52.742;15.242;2022-07-10T01:51:05;13.08;80.98
69335;SHT31;56477;52.742;15.242;2022-07-10T01:53:31;13.05;81.07
69335;SHT31;56477;52.742;15.242;2022-07-10T01:55:58;13.06;80.89
69335;SHT31;56477;52.742;15.242;2022-07-10T01:58:24;13.03;81.21
69335;SHT31;56477;52.742;15.242;2022-07-10T02:00:50;12.99;81.24
69335;SHT31;56477;52.742;15.242;2022-07-10T02:03:16;13.05;81.27
69335;SHT31;56477;52.742;15.242;2022-07-10T02:06:00;13.01;81.39
69335;SHT31;56477;52.742;15.242;2022-07-10T02:08:26;12.99;81.70
69335;SHT31;56477;52.742;15.242;2022-07-10T02:10:52;13.02;81.54
69335;SHT31;56477;52.742;15.242;2022-07-10T02:13:18;12.98;81.57
69335;SHT31;56477;52.742;15.242;2022-07-10T02:15:46;13.01;81.32
69335;SHT31;56477;52.742;15.242;2022-07-10T02:18:13;13.02;81.11
69335;SHT31;56477;52.742;15.242;2022-07-10T02:20:39;13.02;81.21
69335;SHT31;56477;52.742;15.242;2022-07-10T02:23:05;13.01;80.70
69335;SHT31;56477;52.742;15.242;2022-07-10T02:25:33;13.01;81.20
69335;SHT31;56477;52.742;15.242;2022-07-10T02:27:59;13.02;81.22
69335;SHT31;56477;52.742;15.242;2022-07-10T02:30:26;13.03;80.96
69335;SHT31;56477;52.742;15.242;2022-07-10T02:32:51;12.99;81.33
69335;SHT31;56477;52.742;15.242;2022-07-10T02:35:17;12.98;81.41
69335;SHT31;56477;52.742;15.242;2022-07-10T02:37:43;12.99;80.63
69335;SHT31;56477;52.742;15.242;2022-07-10T02:40:09;13.02;80.51
69335;SHT31;56477;52.742;15.242;2022-07-10T02:42:36;13.03;80.54
69335;SHT31;56477;52.742;15.242;2022-07-10T02:45:03;13.01;80.44
69335;SHT31;56477;52.742;15.242;2022-07-10T02:47:29;13.03;80.27
69335;SHT31;56477;52.742;15.242;2022-07-10T02:49:54;13.01;80.92
69335;SHT31;56477;52.742;15.242;2022-07-10T02:52:21;12.99;80.69
69335;SHT31;56477;52.742;15.242;2022-07-10T02:54:47;12.98;81.14
69335;SHT31;56477;52.742;15.242;2022-07-10T02:57:12;12.91;81.28
69335;SHT31;56477;52.742;15.242;2022-07-10T02:59:38;12.88;82.01
69335;SHT31;56477;52.742;15.242;2022-07-10T03:02:05;12.82;82.18
69335;SHT31;56477;52.742;15.242;2022-07-10T03:04:31;12.72;82.87
69335;SHT31;56477;52.742;15.242;2022-07-10T03:06:57;12.72;83.20
69335;SHT31;56477;52.742;15.242;2022-07-10T03:09:23;12.69;83.27
69335;SHT31;56477;52.742;15.242;2022-07-10T03:11:48;12.64;83.12
69335;SHT31;56477;52.742;15.242;2022-07-10T03:14:15;12.61;83.78
69335;SHT31;56477;52.742;15.242;2022-07-10T03:16:42;12.57;83.61
69335;SHT31;56477;52.742;15.242;2022-07-10T03:19:08;12.52;84.11
69335;SHT31;56477;52.742;15.242;2022-07-10T03:21:35;12.55;84.09
69335;SHT31;56477;52.742;15.242;2022-07-10T03:24:01;12.51;83.71
69335;SHT31;56477;52.742;15.242;2022-07-10T03:26:26;12.52;83.79
69335;SHT31;56477;52.742;15.242;2022-07-10T03:28:55;12.52;83.84
69335;SHT31;56477;52.742;15.242;2022-07-10T03:31:22;12.55;83.78
69335;SHT31;56477;52.742;15.242;2022-07-10T03:33:48;12.54;83.78
69335;SHT31;56477;52.742;15.242;2022-07-10T03:36:14;12.62;83.05
69335;SHT31;56477;52.742;15.242;2022-07-10T03:38:40;12.64;83.38
69335;SHT31;56477;52.742;15.242;2022-07-10T03:41:06;12.64;83.10
69335;SHT31;56477;52.742;15.242;2022-07-10T03:43:33;12.68;83.24
69335;SHT31;56477;52.742;15.242;2022-07-10T03:45:59;12.67;83.49
69335;SHT31;56477;52.742;15.242;2022-07-10T03:48:25;12.69;83.55
69335;SHT31;56477;52.742;15.242;2022-07-10T03:50:51;12.77;82.84
69335;SHT31;56477;52.742;15.242;2022-07-10T03:53:18;12.75;82.77
69335;SHT31;56477;52.742;15.242;2022-07-10T03:55:44;12.74;82.73
69335;SHT31;56477;52.742;15.242;2022-07-10T03:58:10;12.77;82.52
69335;SHT31;56477;52.742;15.242;2022-07-10T04:00:36;12.78;82.14
69335;SHT31;56477;52.742;15.242;2022-07-10T04:03:05;12.82;82.55
69335;SHT31;56477;52.742;15.242;2022-07-10T04:05:32;12.87;81.55
69335;SHT31;56477;52.742;15.242;2022-07-10T04:07:59;12.84;82.43
69335;SHT31;56477;52.742;15.242;2022-07-10T04:10:26;12.91;81.94
69335;SHT31;56477;52.742;15.242;2022-07-10T04:12:52;12.95;82.10
69335;SHT31;56477;52.742;15.242;2022-07-10T04:15:19;12.95;81.77
69335;SHT31;56477;52.742;15.242;2022-07-10T04:17:45;13.01;81.33
69335;SHT31;56477;52.742;15.242;2022-07-10T04:20:12;13.12;81.31
69335;SHT31;56477;52.742;15.242;2022-07-10T04:22:37;13.16;81.39
69335;SHT31;56477;52.742;15.242;2022-07-10T04:25:04;13.16;81.26
69335;SHT31;56477;52.742;15.242;2022-07-10T04:27:31;13.18;81.02
69335;SHT31;56477;52.742;15.242;2022-07-10T04:29:57;13.20;80.41
69335;SHT31;56477;52.742;15.242;2022-07-10T04:32:23;13.12;80.40
69335;SHT31;56477;52.742;15.242;2022-07-10T04:34:49;13.10;80.67
69335;SHT31;56477;52.742;15.242;2022-07-10T04:37:16;13.10;81.17
69335;SHT31;56477;52.742;15.242;2022-07-10T04:39:42;13.06;80.86
69335;SHT31;56477;52.742;15.242;2022-07-10T04:42:08;13.09;81.46
69335;SHT31;56477;52.742;15.242;2022-07-10T04:44:35;13.05;81.23
69335;SHT31;56477;52.742;15.242;2022-07-10T04:47:05;12.99;82.09
69335;SHT31;56477;52.742;15.242;2022-07-10T04:49:32;12.96;81.26
69335;SHT31;56477;52.742;15.242;2022-07-10T04:51:58;13.01;81.63
69335;SHT31;56477;52.742;15.242;2022-07-10T04:54:25;13.03;81.37
69335;SHT31;56477;52.742;15.242;2022-07-10T04:56:51;13.05;81.61
69335;SHT31;56477;52.742;15.242;2022-07-10T04:59:17;13.16;81.11
69335;SHT31;56477;52.742;15.242;2022-07-10T05:01:43;13.13;81.39
69335;SHT31;56477;52.742;15.242;2022-07-10T05:04:10;13.18;81.57
69335;SHT31;56477;52.742;15.242;2022-07-10T05:06:35;13.10;80.88
69335;SHT31;56477;52.742;15.242;2022-07-10T05:09:02;13.20;81.64
69335;SHT31;56477;52.742;15.242;2022-07-10T05:11:28;13.13;81.02
69335;SHT31;56477;52.742;15.242;2022-07-10T05:13:54;13.13;81.29
69335;SHT31;56477;52.742;15.242;2022-07-10T05:16:20;13.05;81.52
69335;SHT31;56477;52.742;15.242;2022-07-10T05:18:46;13.09;81.37
69335;SHT31;56477;52.742;15.242;2022-07-10T05:21:12;13.01;81.52
69335;SHT31;56477;52.742;15.242;2022-07-10T05:23:38;13.09;81.75
69335;SHT31;56477;52.742;15.242;2022-07-10T05:26:05;13.08;81.44
69335;SHT31;56477;52.742;15.242;2022-07-10T05:28:31;13.03;81.71
69335;SHT31;56477;52.742;15.242;2022-07-10T05:30:57;13.12;81.44
69335;SHT31;56477;52.742;15.242;2022-07-10T05:33:24;13.15;81.29
69335;SHT31;56477;52.742;15.242;2022-07-10T05:35:52;13.24;80.95
69335;SHT31;56477;52.742;15.242;2022-07-10T05:38:18;13.30;80.23
69335;SHT31;56477;52.742;15.242;2022-07-10T05:40:44;13.51;80.13
69335;SHT31;56477;52.742;15.242;2022-07-10T05:43:10;13.56;80.08
69335;SHT31;56477;52.742;15.242;2022-07-10T05:45:37;13.66;79.11
69335;SHT31;56477;52.742;15.242;2022-07-10T05:48:04;13.68;78.19
69335;SHT31;56477;52.742;15.242;2022-07-10T05:50:29;13.81;78.29
69335;SHT31;56477;52.742;15.242;2022-07-10T05:52:56;13.82;77.54
69335;SHT31;56477;52.742;15.242;2022-07-10T05:55:22;13.97;77.57
69335;SHT31;56477;52.742;15.242;2022-07-10T05:57:49;14.07;77.75
69335;SHT31;56477;52.742;15.242;2022-07-10T06:00:16;14.14;77.38
69335;SHT31;56477;52.742;15.242;2022-07-10T06:02:42;14.04;77.88
69335;SHT31;56477;52.742;15.242;2022-07-10T06:05:08;14.12;77.95
69335;SHT31;56477;52.742;15.242;2022-07-10T06:07:35;14.14;78.48
69335;SHT31;56477;52.742;15.242;2022-07-10T06:10:03;14.15;77.84
69335;SHT31;56477;52.742;15.242;2022-07-10T06:12:29;14.04;77.77
69335;SHT31;56477;52.742;15.242;2022-07-10T06:14:56;13.82;77.96
69335;SHT31;56477;52.742;15.242;2022-07-10T06:17:22;13.91;78.81
69335;SHT31;56477;52.742;15.242;2022-07-10T06:19:48;14.21;77.45
69335;SHT31;56477;52.742;15.242;2022-07-10T06:22:14;14.26;77.09
69335;SHT31;56477;52.742;15.242;2022-07-10T06:25:04;14.33;77.87
69335;SHT31;56477;52.742;15.242;2022-07-10T06:27:31;14.15;76.79
69335;SHT31;56477;52.742;15.242;2022-07-10T06:29:57;14.24;76.82
69335;SHT31;56477;52.742;15.242;2022-07-10T06:32:24;14.53;76.52
69335;SHT31;56477;52.742;15.242;2022-07-10T06:34:54;14.86;75.18
69335;SHT31;56477;52.742;15.242;2022-07-10T06:37:20;14.97;74.63
69335;SHT31;56477;52.742;15.242;2022-07-10T06:39:47;15.18;72.52
69335;SHT31;56477;52.742;15.242;2022-07-10T06:42:13;15.05;72.63
69335;SHT31;56477;52.742;15.242;2022-07-10T06:44:40;15.01;72.37
69335;SHT31;56477;52.742;15.242;2022-07-10T06:47:06;15.18;73.19
69335;SHT31;56477;52.742;15.242;2022-07-10T06:49:51;15.27;72.41
69335;SHT31;56477;52.742;15.242;2022-07-10T06:52:18;15.07;73.66
69335;SHT31;56477;52.742;15.242;2022-07-10T06:54:43;14.75;74.17
69335;SHT31;56477;52.742;15.242;2022-07-10T06:57:10;14.62;74.23
69335;SHT31;56477;52.742;15.242;2022-07-10T06:59:36;14.33;75.13
69335;SHT31;56477;52.742;15.242;2022-07-10T07:02:02;14.45;75.99
69335;SHT31;56477;52.742;15.242;2022-07-10T07:04:30;14.50;75.47
69335;SHT31;56477;52.742;15.242;2022-07-10T07:06:56;14.59;74.33
69335;SHT31;56477;52.742;15.242;2022-07-10T07:09:22;14.81;73.24
69335;SHT31;56477;52.742;15.242;2022-07-10T07:11:48;14.83;72.81
69335;SHT31;56477;52.742;15.242;2022-07-10T07:14:14;15.31;72.36
69335;SHT31;56477;52.742;15.242;2022-07-10T07:16:40;15.44;72.24
69335;SHT31;56477;52.742;15.242;2022-07-10T07:19:11;15.04;73.29
69335;SHT31;56477;52.742;15.242;2022-07-10T07:21:44;14.80;74.09
69335;SHT31;56477;52.742;15.242;2022-07-10T07:24:28;14.80;74.66
69335;SHT31;56477;52.742;15.242;2022-07-10T07:26:54;14.63;75.19
69335;SHT31;56477;52.742;15.242;2022-07-10T07:29:20;14.40;75.71
69335;SHT31;56477;52.742;15.242;2022-07-10T07:31:46;14.43;75.36
69335;SHT31;56477;52.742;15.242;2022-07-10T07:34:13;14.55;75.30
69335;SHT31;56477;52.742;15.242;2022-07-10T07:36:38;14.52;75.59
69335;SHT31;56477;52.742;15.242;2022-07-10T07:39:04;14.32;75.61
69335;SHT31;56477;52.742;15.242;2022-07-10T07:41:30;14.35;75.80
69335;SHT31;56477;52.742;15.242;2022-07-10T07:43:56;14.46;76.31
69335;SHT31;56477;52.742;15.242;2022-07-10T07:46:22;14.52;76.08
69335;SHT31;56477;52.742;15.242;2022-07-10T07:48:50;14.63;75.79
69335;SHT31;56477;52.742;15.242;2022-07-10T07:51:16;14.65;75.75
69335;SHT31;56477;52.742;15.242;2022-07-10T07:53:43;14.70;75.42
69335;SHT31;56477;52.742;15.242;2022-07-10T07:56:09;15.55;73.71
69335;SHT31;56477;52.742;15.242;2022-07-10T07:58:35;16.37;70.89
69335;SHT31;56477;52.742;15.242;2022-07-10T08:01:01;16.48;71.21
69335;SHT31;56477;52.742;15.242;2022-07-10T08:03:27;16.24;70.96
69335;SHT31;56477;52.742;15.242;2022-07-10T08:05:53;16.23;69.34
69335;SHT31;56477;52.742;15.242;2022-07-10T08:08:18;16.38;68.10
69335;SHT31;56477;52.742;15.242;2022-07-10T08:10:44;16.75;67.44
69335;SHT31;56477;52.742;15.242;2022-07-10T08:13:10;17.55;65.78
69335;SHT31;56477;52.742;15.242;2022-07-10T08:15:37;17.51;65.55
69335;SHT31;56477;52.742;15.242;2022-07-10T08:18:03;18.24;62.96
69335;SHT31;56477;52.742;15.242;2022-07-10T08:20:29;18.85;60.79
69335;SHT31;56477;52.742;15.242;2022-07-10T08:22:56;19.52;59.24
69335;SHT31;56477;52.742;15.242;2022-07-10T08:25:23;18.47;60.72
69335;SHT31;56477;52.742;15.242;2022-07-10T08:27:49;17.55;63.72
69335;SHT31;56477;52.742;15.242;2022-07-10T08:30:15;16.58;66.08
69335;SHT31;56477;52.742;15.242;2022-07-10T08:32:42;16.33;67.37
69335;SHT31;56477;52.742;15.242;2022-07-10T08:35:09;15.93;69.06
69335;SHT31;56477;52.742;15.242;2022-07-10T08:37:43;15.51;70.00
69335;SHT31;56477;52.742;15.242;2022-07-10T08:40:11;15.59;70.67
69335;SHT31;56477;52.742;15.242;2022-07-10T08:42:38;15.76;69.40
69335;SHT31;56477;52.742;15.242;2022-07-10T08:45:06;15.92;69.15
69335;SHT31;56477;52.742;15.242;2022-07-10T08:47:36;15.86;68.99
69335;SHT31;56477;52.742;15.242;2022-07-10T08:50:02;16.04;69.15
69335;SHT31;56477;52.742;15.242;2022-07-10T08:52:36;15.79;68.81
69335;SHT31;56477;52.742;15.242;2022-07-10T08:55:04;15.86;69.20
69335;SHT31;56477;52.742;15.242;2022-07-10T08:57:30;15.63;70.10
69335;SHT31;56477;52.742;15.242;2022-07-10T08:59:59;16.02;70.35
69335;SHT31;56477;52.742;15.242;2022-07-10T09:02:25;16.28;68.23
69335;SHT31;56477;52.742;15.242;2022-07-10T09:04:51;16.71;67.68
69335;SHT31;56477;52.742;15.242;2022-07-10T09:07:17;17.78;63.87
69335;SHT31;56477;52.742;15.242;2022-07-10T09:09:55;17.73;62.70
69335;SHT31;56477;52.742;15.242;2022-07-10T09:12:22;17.68;62.68
69335;SHT31;56477;52.742;15.242;2022-07-10T09:14:49;17.95;61.17
69335;SHT31;56477;52.742;15.242;2022-07-10T09:17:16;17.75;61.48
69335;SHT31;56477;52.742;15.242;2022-07-10T09:19:42;17.92;62.69
69335;SHT31;56477;52.742;15.242;2022-07-10T09:22:09;17.30;65.24
69335;SHT31;56477;52.742;15.242;2022-07-10T09:24:37;17.16;64.40
69335;SHT31;56477;52.742;15.242;2022-07-10T09:27:04;16.96;66.42
69335;SHT31;56477;52.742;15.242;2022-07-10T09:29:32;16.33;66.70
69335;SHT31;56477;52.742;15.242;2022-07-10T09:31:59;16.09;67.94
69335;SHT31;56477;52.742;15.242;2022-07-10T09:34:40;15.99;68.26
69335;SHT31;56477;52.742;15.242;2022-07-10T09:39:58;15.89;68.49
69335;SHT31;56477;52.742;15.242;2022-07-10T09:47:39;16.07;67.67
69335;SHT31;56477;52.742;15.242;2022-07-10T09:50:32;16.17;67.03
69335;SHT31;56477;52.742;15.242;2022-07-10T09:53:03;16.21;67.69
69335;SHT31;56477;52.742;15.242;2022-07-10T09:55:32;15.94;68.57
69335;SHT31;56477;52.742;15.242;2022-07-10T09:58:03;15.87;67.42
69335;SHT31;56477;52.742;15.242;2022-07-10T10:00:37;15.96;68.04
69335;SHT31;56477;52.742;15.242;2022-07-10T10:03:09;16.07;67.02
69335;SHT31;56477;52.742;15.242;2022-07-10T10:10:59;16.91;65.74
69335;SHT31;56477;52.742;15.242;2022-07-10T10:13:26;16.75;65.49
69335;SHT31;56477;52.742;15.242;2022-07-10T10:15:53;16.57;66.25
69335;SHT31;56477;52.742;15.242;2022-07-10T10:18:21;16.62;66.18
69335;SHT31;56477;52.742;15.242;2022-07-10T10:20:49;16.61;67.35
69335;SHT31;56477;52.742;15.242;2022-07-10T10:23:23;16.55;67.41
69335;SHT31;56477;52.742;15.242;2022-07-10T10:25:57;16.40;67.20
69335;SHT31;56477;52.742;15.242;2022-07-10T10:28:24;16.17;69.10
69335;SHT31;56477;52.742;15.242;2022-07-10T10:30:58;16.23;68.61
69335;SHT31;56477;52.742;15.242;2022-07-10T10:36:13;16.54;67.72
69335;SHT31;56477;52.742;15.242;2022-07-10T10:41:27;17.29;65.01
69335;SHT31;56477;52.742;15.242;2022-07-10T10:49:23;18.04;59.88
69335;SHT31;56477;52.742;15.242;2022-07-10T10:54:28;17.63;61.49
69335;SHT31;56477;52.742;15.242;2022-07-10T10:57:13;17.67;61.91
69335;SHT31;56477;52.742;15.242;2022-07-10T10:59:47;17.78;62.19
69335;SHT31;56477;52.742;15.242;2022-07-10T11:02:25;17.19;60.55
69335;SHT31;56477;52.742;15.242;2022-07-10T11:04:53;17.39;61.91
69335;SHT31;56477;52.742;15.242;2022-07-10T11:08:02;17.44;60.31
69335;SHT31;56477;52.742;15.242;2022-07-10T11:10:31;17.46;61.65
69335;SHT31;56477;52.742;15.242;2022-07-10T11:13:11;17.70;63.21
69335;SHT31;56477;52.742;15.242;2022-07-10T11:15:40;17.57;61.68
69335;SHT31;56477;52.742;15.242;2022-07-10T11:18:18;17.41;61.41
69335;SHT31;56477;52.742;15.242;2022-07-10T11:20:47;17.40;60.60
69335;SHT31;56477;52.742;15.242;2022-07-10T11:26:35;17.46;60.65
69335;SHT31;56477;52.742;15.242;2022-07-10T11:29:05;17.54;59.91
69335;SHT31;56477;52.742;15.242;2022-07-10T11:31:32;17.57;59.76
69335;SHT31;56477;52.742;15.242;2022-07-10T11:34:10;17.54;60.94
69335;SHT31;56477;52.742;15.242;2022-07-10T11:36:39;17.89;60.80
69335;SHT31;56477;52.742;15.242;2022-07-10T11:39:07;18.09;60.10
69335;SHT31;56477;52.742;15.242;2022-07-10T11:41:34;18.39;58.47
69335;SHT31;56477;52.742;15.242;2022-07-10T11:44:02;19.35;56.27
69335;SHT31;56477;52.742;15.242;2022-07-10T11:46:32;20.34;51.87
69335;SHT31;56477;52.742;15.242;2022-07-10T11:48:58;21.14;52.54
69335;SHT31;56477;52.742;15.242;2022-07-10T11:51:27;20.69;52.85
69335;SHT31;56477;52.742;15.242;2022-07-10T11:54:08;19.94;52.40
69335;SHT31;56477;52.742;15.242;2022-07-10T11:56:46;19.08;55.64
69335;SHT31;56477;52.742;15.242;2022-07-10T11:59:13;18.18;58.07
69335;SHT31;56477;52.742;15.242;2022-07-10T12:04:08;18.30;58.42
69335;SHT31;56477;52.742;15.242;2022-07-10T12:06:40;19.62;57.07
69335;SHT31;56477;52.742;15.242;2022-07-10T12:09:08;20.52;53.73
69335;SHT31;56477;52.742;15.242;2022-07-10T12:11:35;20.62;54.37
69335;SHT31;56477;52.742;15.242;2022-07-10T12:14:21;19.77;55.67
69335;SHT31;56477;52.742;15.242;2022-07-10T12:16:50;19.89;54.88
69335;SHT31;56477;52.742;15.242;2022-07-10T12:19:28;19.84;53.89
69335;SHT31;56477;52.742;15.242;2022-07-10T12:21:57;20.27;53.79
69335;SHT31;56477;52.742;15.242;2022-07-10T12:24:24;20.93;51.51
69335;SHT31;56477;52.742;15.242;2022-07-10T12:26:51;21.81;51.00
69335;SHT31;56477;52.742;15.242;2022-07-10T12:29:26;21.06;49.77
69335;SHT31;56477;52.742;15.242;2022-07-10T12:31:53;21.26;50.96
69335;SHT31;56477;52.742;15.242;2022-07-10T12:34:35;20.18;54.78
69335;SHT31;56477;52.742;15.242;2022-07-10T12:37:13;19.59;54.16
69335;SHT31;56477;52.742;15.242;2022-07-10T12:39:50;18.83;57.08
69335;SHT31;56477;52.742;15.242;2022-07-10T12:42:28;18.66;56.28
69335;SHT31;56477;52.742;15.242;2022-07-10T12:45:04;18.55;57.09
69335;SHT31;56477;52.742;15.242;2022-07-10T12:47:43;18.19;58.39
69335;SHT31;56477;52.742;15.242;2022-07-10T12:50:11;18.06;60.12
69335;SHT31;56477;52.742;15.242;2022-07-10T12:52:38;18.04;59.15
69335;SHT31;56477;52.742;15.242;2022-07-10T12:55:22;18.24;59.57
69335;SHT31;56477;52.742;15.242;2022-07-10T12:57:55;18.90;57.76
69335;SHT31;56477;52.742;15.242;2022-07-10T13:00:23;18.93;58.79
69335;SHT31;56477;52.742;15.242;2022-07-10T13:03:11;18.95;57.26
69335;SHT31;56477;52.742;15.242;2022-07-10T13:05:43;18.64;56.86
69335;SHT31;56477;52.742;15.242;2022-07-10T13:08:13;18.59;56.50
69335;SHT31;56477;52.742;15.242;2022-07-10T13:10:49;18.35;56.58
69335;SHT31;56477;52.742;15.242;2022-07-10T13:13:16;18.30;57.74
69335;SHT31;56477;52.742;15.242;2022-07-10T13:15:43;18.35;58.10
69335;SHT31;56477;52.742;15.242;2022-07-10T13:18:16;18.43;57.25
69335;SHT31;56477;52.742;15.242;2022-07-10T13:20:47;18.59;56.57
69335;SHT31;56477;52.742;15.242;2022-07-10T13:23:14;18.94;54.98
69335;SHT31;56477;52.742;15.242;2022-07-10T13:25:40;19.22;54.39
69335;SHT31;56477;52.742;15.242;2022-07-10T13:28:08;19.41;53.89
69335;SHT31;56477;52.742;15.242;2022-07-10T13:30:35;19.96;54.47
69335;SHT31;56477;52.742;15.242;2022-07-10T13:33:01;20.09;52.86
69335;SHT31;56477;52.742;15.242;2022-07-10T13:35:31;19.62;53.14
69335;SHT31;56477;52.742;15.242;2022-07-10T13:37:58;19.90;53.49
69335;SHT31;56477;52.742;15.242;2022-07-10T13:40:26;20.06;53.63
69335;SHT31;56477;52.742;15.242;2022-07-10T13:42:52;20.31;53.54
69335;SHT31;56477;52.742;15.242;2022-07-10T13:45:19;20.79;50.39
69335;SHT31;56477;52.742;15.242;2022-07-10T13:47:45;20.86;50.74
69335;SHT31;56477;52.742;15.242;2022-07-10T13:50:12;21.16;50.99
69335;SHT31;56477;52.742;15.242;2022-07-10T13:52:37;19.86;52.89
69335;SHT31;56477;52.742;15.242;2022-07-10T13:55:03;19.48;54.84
69335;SHT31;56477;52.742;15.242;2022-07-10T13:57:31;19.29;56.14
69335;SHT31;56477;52.742;15.242;2022-07-10T13:59:57;19.36;55.93
69335;SHT31;56477;52.742;15.242;2022-07-10T14:02:23;18.78;58.86
69335;SHT31;56477;52.742;15.242;2022-07-10T14:04:49;18.59;59.80
69335;SHT31;56477;52.742;15.242;2022-07-10T14:07:15;18.50;60.53
69335;SHT31;56477;52.742;15.242;2022-07-10T14:09:41;18.52;59.27
69335;SHT31;56477;52.742;15.242;2022-07-10T14:12:07;18.42;58.75
69335;SHT31;56477;52.742;15.242;2022-07-10T14:14:33;18.60;58.34
69335;SHT31;56477;52.742;15.242;2022-07-10T14:16:59;18.64;60.06
69335;SHT31;56477;52.742;15.242;2022-07-10T14:19:25;18.81;59.09
69335;SHT31;56477;52.742;15.242;2022-07-10T14:21:50;18.60;60.15
69335;SHT31;56477;52.742;15.242;2022-07-10T14:24:16;18.36;61.59
69335;SHT31;56477;52.742;15.242;2022-07-10T14:26:42;18.21;61.03
69335;SHT31;56477;52.742;15.242;2022-07-10T14:29:08;18.16;59.02
69335;SHT31;56477;52.742;15.242;2022-07-10T14:31:34;18.32;59.65
69335;SHT31;56477;52.742;15.242;2022-07-10T14:34:00;18.40;59.51
69335;SHT31;56477;52.742;15.242;2022-07-10T14:36:26;18.42;59.79
69335;SHT31;56477;52.742;15.242;2022-07-10T14:38:53;18.28;60.40
69335;SHT31;56477;52.742;15.242;2022-07-10T14:41:20;18.45;60.40
69335;SHT31;56477;52.742;15.242;2022-07-10T14:43:46;18.29;60.91
69335;SHT31;56477;52.742;15.242;2022-07-10T14:46:13;18.55;60.84
69335;SHT31;56477;52.742;15.242;2022-07-10T14:48:39;18.93;60.49
69335;SHT31;56477;52.742;15.242;2022-07-10T14:51:05;19.26;60.05
69335;SHT31;56477;52.742;15.242;2022-07-10T14:53:31;19.29;59.51
69335;SHT31;56477;52.742;15.242;2022-07-10T14:56:04;19.21;59.64
69335;SHT31;56477;52.742;15.242;2022-07-10T14:58:34;19.29;60.08
69335;SHT31;56477;52.742;15.242;2022-07-10T15:01:00;19.34;59.35
69335;SHT31;56477;52.742;15.242;2022-07-10T15:03:26;19.63;56.92
69335;SHT31;56477;52.742;15.242;2022-07-10T15:05:52;19.41;55.74
69335;SHT31;56477;52.742;15.242;2022-07-10T15:08:20;19.70;55.29
69335;SHT31;56477;52.742;15.242;2022-07-10T15:10:46;19.79;56.06
69335;SHT31;56477;52.742;15.242;2022-07-10T15:13:13;19.69;54.48
69335;SHT31;56477;52.742;15.242;2022-07-10T15:15:39;19.96;54.61
69335;SHT31;56477;52.742;15.242;2022-07-10T15:18:06;20.31;53.81
69335;SHT31;56477;52.742;15.242;2022-07-10T15:20:33;20.00;52.99
69335;SHT31;56477;52.742;15.242;2022-07-10T15:22:58;19.66;53.74
69335;SHT31;56477;52.742;15.242;2022-07-10T15:25:25;19.92;53.72
69335;SHT31;56477;52.742;15.242;2022-07-10T15:27:52;20.00;53.02
69335;SHT31;56477;52.742;15.242;2022-07-10T15:30:18;19.90;54.73
69335;SHT31;56477;52.742;15.242;2022-07-10T15:32:44;19.61;54.78
69335;SHT31;56477;52.742;15.242;2022-07-10T15:35:13;19.61;54.86
69335;SHT31;56477;52.742;15.242;2022-07-10T15:37:40;19.90;54.20
69335;SHT31;56477;52.742;15.242;2022-07-10T15:40:06;20.11;53.70
69335;SHT31;56477;52.742;15.242;2022-07-10T15:42:33;20.17;54.21
69335;SHT31;56477;52.742;15.242;2022-07-10T15:44:59;20.30;52.85
69335;SHT31;56477;52.742;15.242;2022-07-10T15:47:25;20.24;52.83
69335;SHT31;56477;52.742;15.242;2022-07-10T15:49:51;19.98;53.61
69335;SHT31;56477;52.742;15.242;2022-07-10T15:52:17;19.48;54.65